Time;durP1;ratioP1;P1;durP2;ratioP2;P2;SDS_P1;SDS_P2;PMS_P1;PMS_P2;Temp;Humidity;BMP_temperature;BMP_pressure;BME280_temperature;BME280_humidity;BME280_pressure;Samples;Min_cycle;Max_cycle;Signal;HPM_P1;HPM_P2
2022/08/09 00:01:25;;;;;;;5.18;3.55;;;;;;;18.26;100.00;102603.28;5207197;28;20076;-69
2022/08/09 00:03:57;;;;;;;4.80;3.67;;;;;;;18.17;100.00;102597.84;5209076;28;20506;-69
2022/08/09 00:06:28;;;;;;;5.13;3.60;;;;;;;18.11;100.00;102598.41;5209102;28;20038;-68
2022/08/09 00:08:59;;;;;;;6.05;4.05;;;;;;;18.13;100.00;102592.94;5203803;28;20111;-69
2022/08/09 00:11:30;;;;;;;6.45;4.00;;;;;;;18.09;100.00;102592.38;5204828;28;20056;-70
2022/08/09 00:14:02;;;;;;;9.23;4.72;;;;;;;18.06;100.00;102591.81;5205652;28;20568;-69
2022/08/09 00:16:34;;;;;;;6.75;3.97;;;;;;;18.00;100.00;102595.88;5206797;28;20029;-69
2022/08/09 00:19:05;;;;;;;7.28;3.97;;;;;;;17.97;100.00;102591.66;5204081;28;20580;-69
2022/08/09 00:21:37;;;;;;;4.30;3.63;;;;;;;17.97;100.00;102589.00;5209339;28;20101;-68
2022/08/09 00:24:09;;;;;;;5.03;3.97;;;;;;;17.91;100.00;102589.53;5208832;28;20033;-69
2022/08/09 00:26:40;;;;;;;6.32;4.03;;;;;;;18.02;100.00;102571.84;5203292;28;20022;-69
2022/08/09 00:29:11;;;;;;;5.03;4.53;;;;;;;17.98;100.00;102595.97;5207897;28;20068;-69
2022/08/09 00:31:43;;;;;;;4.50;3.70;;;;;;;18.05;100.00;102595.44;5207184;28;20022;-68
2022/08/09 00:34:14;;;;;;;5.82;3.50;;;;;;;17.98;100.00;102588.03;5207097;28;20037;-68
2022/08/09 00:36:47;;;;;;;4.00;3.47;;;;;;;17.89;100.00;102582.72;5205414;28;20022;-68
2022/08/09 00:39:18;;;;;;;7.03;3.90;;;;;;;17.94;100.00;102591.09;5208402;28;20037;-68
2022/08/09 00:41:49;;;;;;;7.07;4.10;;;;;;;17.94;100.00;102585.78;5201965;28;20047;-68
2022/08/09 00:44:21;;;;;;;6.32;3.47;;;;;;;17.87;100.00;102587.31;5201276;28;20030;-68
2022/08/09 00:46:52;;;;;;;7.32;3.53;;;;;;;17.90;100.00;102590.53;5208225;28;20032;-68
2022/08/09 00:49:24;;;;;;;5.90;3.78;;;;;;;17.90;100.00;102587.88;5207828;28;20034;-68
2022/08/09 00:51:56;;;;;;;4.65;3.63;;;;;;;17.86;100.00;102590.94;5206454;28;20081;-68
2022/08/09 00:54:27;;;;;;;9.05;4.15;;;;;;;17.85;100.00;102589.25;5204650;28;20030;-68
2022/08/09 00:56:59;;;;;;;4.13;3.17;;;;;;;17.85;100.00;102591.91;5206831;28;20100;-68
2022/08/09 00:59:30;;;;;;;4.28;3.25;;;;;;;17.86;100.00;102588.28;5207950;28;20436;-69
2022/08/09 01:02:02;;;;;;;5.32;4.10;;;;;;;17.80;100.00;102584.34;5208243;28;20072;-69
2022/08/09 01:04:45;;;;;;;4.70;3.17;;;;;;;17.91;100.00;102588.72;5203767;28;20089;-68
2022/08/09 01:07:32;;;;;;;6.20;3.95;;;;;;;17.83;100.00;102588.53;5208946;28;20026;-68
2022/08/09 01:10:16;;;;;;;5.93;3.33;;;;;;;17.86;100.00;102588.28;5204119;28;20048;-68
2022/08/09 01:12:59;;;;;;;6.80;3.28;;;;;;;17.92;100.00;102590.41;5207274;28;20508;-68
2022/08/09 01:15:37;;;;;;;5.35;3.35;;;;;;;17.82;100.00;102598.31;5209057;28;20132;-68
2022/08/09 01:18:14;;;;;;;7.47;3.75;;;;;;;17.70;100.00;102596.72;5205675;28;20021;-69
2022/08/09 01:20:58;;;;;;;5.22;3.38;;;;;;;17.72;100.00;102590.28;5206663;28;20067;-69
2022/08/09 01:23:53;;;;;;;5.97;3.45;;;;;;;17.63;100.00;102592.91;5204690;28;20014;-68
2022/08/09 01:26:36;;;;;;;5.03;3.70;;;;;;;17.80;100.00;102589.66;5195381;28;20122;-69
2022/08/09 01:29:11;;;;;;;5.32;3.80;;;;;;;17.55;100.00;102593.59;5204297;28;20117;-69
2022/08/09 01:31:45;;;;;;;5.70;3.75;;;;;;;17.49;100.00;102586.16;5205086;28;20041;-69
2022/08/09 01:34:20;;;;;;;6.03;3.95;;;;;;;17.45;100.00;102595.34;5205565;28;20029;-69
2022/08/09 01:36:55;;;;;;;4.28;3.28;;;;;;;17.46;100.00;102589.94;5205381;28;20041;-69
2022/08/09 01:39:27;;;;;;;7.70;3.47;;;;;;;17.38;100.00;102591.53;5206309;28;20061;-69
2022/08/09 01:42:00;;;;;;;6.68;3.72;;;;;;;17.38;100.00;102581.78;5203619;28;20025;-68
2022/08/09 01:44:32;;;;;;;5.22;3.70;;;;;;;17.26;100.00;102588.97;5206807;28;20465;-69
2022/08/09 01:47:05;;;;;;;6.68;3.80;;;;;;;17.25;100.00;102589.13;5209122;28;20033;-68
2022/08/09 01:49:37;;;;;;;7.72;3.78;;;;;;;17.19;100.00;102587.81;5204027;28;20113;-70
2022/08/09 01:52:13;;;;;;;6.53;3.70;;;;;;;17.25;100.00;102587.31;5206427;28;20108;-69
2022/08/09 01:54:49;;;;;;;6.25;3.50;;;;;;;17.32;100.00;102586.78;5203690;28;20026;-69
2022/08/09 01:57:26;;;;;;;5.22;3.75;;;;;;;17.27;100.00;102587.16;5205830;28;20030;-68
2022/08/09 01:59:59;;;;;;;6.15;4.07;;;;;;;17.05;100.00;102590.81;5205690;28;20376;-68
2022/08/09 02:02:33;;;;;;;7.43;4.47;;;;;;;17.02;100.00;102591.06;5198516;28;20030;-68
2022/08/09 02:05:08;;;;;;;4.45;3.70;;;;;;;17.02;100.00;102596.38;5204578;28;20104;-68
2022/08/09 02:07:45;;;;;;;6.50;3.95;;;;;;;17.08;100.00;102589.69;5207926;28;20036;-68
2022/08/09 02:10:20;;;;;;;3.97;3.55;;;;;;;17.05;100.00;102601.41;5209903;28;20022;-68
2022/08/09 02:12:54;;;;;;;4.22;3.80;;;;;;;16.93;100.00;102602.44;5207995;28;20041;-69
2022/08/09 02:15:28;;;;;;;4.88;3.85;;;;;;;16.88;100.00;102597.53;5211578;28;20062;-69
2022/08/09 02:18:01;;;;;;;6.40;3.65;;;;;;;16.89;100.00;102603.66;5210661;28;20133;-69
2022/08/09 02:20:38;;;;;;;8.15;4.05;;;;;;;17.03;100.00;102601.53;5209726;28;20104;-69
2022/08/09 02:23:24;;;;;;;4.50;3.42;;;;;;;16.92;100.00;102596.28;5211895;28;20031;-69
2022/08/09 02:25:59;;;;;;;6.18;4.00;;;;;;;16.92;100.00;102592.81;5209284;28;20108;-69
2022/08/09 02:28:43;;;;;;;6.80;3.78;;;;;;;17.03;100.00;102592.75;5210736;28;20033;-69
2022/08/09 02:31:22;;;;;;;5.65;3.92;;;;;;;16.84;100.00;102597.91;5208398;28;20030;-69
2022/08/09 02:33:56;;;;;;;7.75;3.78;;;;;;;16.80;100.00;102589.38;5211002;28;20485;-69
2022/08/09 02:36:36;;;;;;;5.15;3.75;;;;;;;16.82;100.00;102584.81;5209702;28;20051;-68
2022/08/09 02:39:13;;;;;;;8.77;4.53;;;;;;;16.82;100.00;102589.25;5210897;28;20033;-69
2022/08/09 02:41:52;;;;;;;6.53;3.95;;;;;;;16.75;100.00;102589.78;5209166;28;20030;-69
2022/08/09 02:44:26;;;;;;;4.80;4.10;;;;;;;16.62;100.00;102577.66;5208473;28;20018;-69
2022/08/09 02:47:03;;;;;;;4.53;3.83;;;;;;;16.68;100.00;102585.94;5210012;28;20029;-69
2022/08/09 02:50:01;;;;;;;5.07;3.85;;;;;;;16.85;100.00;102581.06;5206283;28;20061;-69
2022/08/09 02:52:38;;;;;;;5.30;4.22;;;;;;;16.73;100.00;102585.53;5211354;28;20018;-69
2022/08/09 02:55:11;;;;;;;5.03;4.05;;;;;;;16.62;100.00;102582.94;5207316;28;20439;-69
2022/08/09 02:57:45;;;;;;;5.63;4.25;;;;;;;16.66;100.00;102584.38;5208095;28;20430;-69
2022/08/09 03:00:16;;;;;;;4.78;4.00;;;;;;;16.58;100.00;102581.53;5209842;28;20022;-69
2022/08/09 03:02:51;;;;;;;6.60;4.22;;;;;;;16.58;100.00;102581.53;5207531;28;20395;-69
2022/08/09 03:05:24;;;;;;;5.03;4.53;;;;;;;16.54;100.00;102576.47;5206765;28;20026;-70
2022/08/09 03:07:57;;;;;;;4.80;4.25;;;;;;;16.61;100.00;102573.34;5210497;28;20033;-69
2022/08/09 03:10:30;;;;;;;5.72;4.07;;;;;;;16.57;100.00;102580.69;5210615;28;20118;-70
2022/08/09 03:13:02;;;;;;;5.50;4.30;;;;;;;16.58;100.00;102577.06;5208629;28;20046;-69
2022/08/09 03:15:34;;;;;;;6.03;4.38;;;;;;;16.45;100.00;102577.25;5211523;28;20045;-69
2022/08/09 03:18:06;;;;;;;5.03;4.53;;;;;;;16.49;100.00;102578.66;5211863;28;20026;-70
2022/08/09 03:20:38;;;;;;;9.68;4.80;;;;;;;16.47;100.00;102580.59;5209056;28;20551;-69
2022/08/09 03:23:11;;;;;;;7.30;4.47;;;;;;;16.37;100.00;102565.63;5208776;28;20109;-69
2022/08/09 03:25:44;;;;;;;4.78;4.30;;;;;;;16.47;100.00;102577.94;5209811;28;20045;-69
2022/08/09 03:28:17;;;;;;;8.13;4.78;;;;;;;16.38;100.00;102572.59;5205704;28;20031;-69
2022/08/09 03:30:49;;;;;;;7.38;4.80;;;;;;;16.39;100.00;102580.38;5209287;28;20030;-69
2022/08/09 03:33:22;;;;;;;7.33;5.37;;;;;;;16.37;100.00;102584.13;5211278;28;20105;-69
2022/08/09 03:35:53;;;;;;;5.97;4.80;;;;;;;16.45;100.00;102579.91;5208735;28;20125;-69
2022/08/09 03:38:25;;;;;;;5.78;4.40;;;;;;;16.34;100.00;102579.09;5203718;28;20463;-70
2022/08/09 03:40:56;;;;;;;5.45;4.65;;;;;;;16.35;100.00;102591.34;5204396;28;20030;-69
2022/08/09 03:43:28;;;;;;;7.38;4.55;;;;;;;16.29;100.00;102585.59;5206477;28;20018;-69
2022/08/09 03:46:00;;;;;;;8.75;4.75;;;;;;;16.29;100.00;102584.75;5207838;28;20026;-69
2022/08/09 03:48:34;;;;;;;7.35;4.93;;;;;;;16.29;100.00;102582.97;5208693;28;20494;-69
2022/08/09 03:51:08;;;;;;;6.43;4.90;;;;;;;16.18;100.00;102588.28;5208755;28;20377;-69
2022/08/09 03:53:41;;;;;;;6.47;4.80;;;;;;;16.19;100.00;102594.41;5205476;28;20545;-70
2022/08/09 03:56:12;;;;;;;5.85;5.22;;;;;;;16.18;100.00;102588.28;5205509;28;20132;-70
2022/08/09 03:58:44;;;;;;;9.05;5.30;;;;;;;16.13;100.00;102582.50;5208297;28;20132;-69
2022/08/09 04:01:16;;;;;;;6.97;4.97;;;;;;;16.12;100.00;102591.41;5205013;28;20028;-69
2022/08/09 04:03:48;;;;;;;10.60;5.07;;;;;;;16.08;100.00;102589.97;5206967;28;20023;-69
2022/08/09 04:06:20;;;;;;;6.55;5.07;;;;;;;16.07;100.00;102588.31;5207765;28;20037;-68
2022/08/09 04:08:51;;;;;;;6.05;4.72;;;;;;;16.05;100.00;102582.28;5206533;28;20477;-69
2022/08/09 04:11:22;;;;;;;8.55;4.80;;;;;;;16.04;100.00;102586.72;5210025;28;20029;-69
2022/08/09 04:13:54;;;;;;;6.63;5.22;;;;;;;15.97;100.00;102582.06;5208365;28;20042;-69
2022/08/09 04:16:25;;;;;;;6.45;5.00;;;;;;;16.00;100.00;102582.66;5211193;28;20095;-69
2022/08/09 04:18:56;;;;;;;6.75;5.22;;;;;;;16.03;100.00;102576.28;5208925;28;20026;-69
2022/08/09 04:21:27;;;;;;;6.72;4.80;;;;;;;15.96;100.00;102581.22;5207815;28;20160;-69
2022/08/09 04:23:59;;;;;;;7.55;5.15;;;;;;;15.98;100.00;102581.09;5205596;28;20076;-69
2022/08/09 04:26:30;;;;;;;10.52;5.60;;;;;;;15.96;100.00;102583.88;5210411;28;20053;-69
2022/08/09 04:29:02;;;;;;;7.55;5.70;;;;;;;16.01;100.00;102586.97;5209415;28;20068;-69
2022/08/09 04:31:33;;;;;;;5.80;5.10;;;;;;;15.95;100.00;102595.41;5211816;28;20030;-69
2022/08/09 04:34:05;;;;;;;6.20;5.35;;;;;;;16.00;100.00;102593.22;5206789;28;20041;-68
2022/08/09 04:36:36;;;;;;;6.95;5.47;;;;;;;15.96;100.00;102601.53;5210545;28;20022;-69
2022/08/09 04:39:07;;;;;;;6.95;4.88;;;;;;;15.93;100.00;102605.25;5207805;28;20025;-69
2022/08/09 04:41:38;;;;;;;7.22;5.93;;;;;;;15.96;100.00;102601.53;5205975;28;20038;-69
2022/08/09 04:44:11;;;;;;;7.07;5.68;;;;;;;15.99;100.00;102596.00;5206035;28;20064;-69
2022/08/09 04:46:42;;;;;;;8.00;5.45;;;;;;;15.98;100.00;102599.59;5207975;28;20102;-69
2022/08/09 04:49:13;;;;;;;7.40;5.55;;;;;;;16.05;100.00;102606.06;5209642;28;20608;-69
2022/08/09 04:51:45;;;;;;;6.65;5.47;;;;;;;16.01;100.00;102612.56;5202860;28;20032;-68
2022/08/09 04:54:16;;;;;;;7.90;6.13;;;;;;;16.02;100.00;102612.47;5208402;28;20077;-68
2022/08/09 04:56:47;;;;;;;9.98;6.45;;;;;;;16.09;100.00;102615.44;5207399;28;20101;-69
2022/08/09 04:59:18;;;;;;;7.50;5.43;;;;;;;16.01;100.00;102616.06;5204051;28;20037;-69
2022/08/09 05:01:50;;;;;;;6.82;5.95;;;;;;;16.00;100.00;102610.91;5208451;28;20022;-69
2022/08/09 05:04:21;;;;;;;7.95;5.90;;;;;;;16.00;100.00;102611.75;5205352;28;20374;-68
2022/08/09 05:06:53;;;;;;;10.27;6.07;;;;;;;16.08;100.00;102627.00;5204647;28;20076;-68
2022/08/09 05:09:25;;;;;;;8.35;5.65;;;;;;;16.09;100.00;102623.38;5206423;28;20037;-69
2022/08/09 05:11:59;;;;;;;7.03;5.68;;;;;;;16.21;100.00;102629.47;5207360;28;20068;-70
2022/08/09 05:14:30;;;;;;;7.63;6.57;;;;;;;16.13;100.00;102634.53;5208149;28;20734;-70
2022/08/09 05:17:01;;;;;;;8.10;6.72;;;;;;;16.21;100.00;102633.00;5206066;28;20030;-69
2022/08/09 05:19:33;;;;;;;8.23;6.13;;;;;;;16.24;100.00;102632.72;5208329;28;20056;-69
2022/08/09 05:22:04;;;;;;;8.43;6.15;;;;;;;16.29;100.00;102630.56;5206076;28;20030;-69
2022/08/09 05:24:35;;;;;;;7.15;6.32;;;;;;;16.30;100.00;102626.94;5205613;28;20079;-69
2022/08/09 05:27:07;;;;;;;7.68;6.90;;;;;;;16.36;100.00;102624.75;5208628;28;20034;-70
2022/08/09 05:29:38;;;;;;;8.05;6.95;;;;;;;16.37;100.00;102626.47;5210560;28;20021;-70
2022/08/09 05:32:09;;;;;;;8.77;6.82;;;;;;;16.40;100.00;102626.19;5203320;28;20545;-70
2022/08/09 05:34:41;;;;;;;7.50;6.05;;;;;;;16.46;100.00;102625.69;5204857;28;20407;-69
2022/08/09 05:37:12;;;;;;;9.27;7.28;;;;;;;16.44;100.00;102617.91;5206217;28;20121;-70
2022/08/09 05:39:43;;;;;;;8.88;7.28;;;;;;;16.49;100.00;102621.00;5206755;28;20022;-70
2022/08/09 05:42:14;;;;;;;7.82;7.00;;;;;;;16.56;100.00;102631.94;5204078;28;20030;-70
2022/08/09 05:44:46;;;;;;;8.20;6.97;;;;;;;16.59;100.00;102639.59;5204214;28;20052;-70
2022/08/09 05:47:19;;;;;;;8.00;7.10;;;;;;;16.66;100.00;102637.28;5204757;28;20026;-70
2022/08/09 05:49:51;;;;;;;;;;;;;;;17.25;100.00;102634.97;5207213;28;20425;-70
2022/08/09 05:52:22;;;;;;;9.57;7.43;;;;;;;16.76;100.00;102635.59;5202944;28;19929;-70
2022/08/09 05:54:54;;;;;;;9.43;7.15;;;;;;;16.84;100.00;102634.97;5201275;28;20034;-70
2022/08/09 05:57:25;;;;;;;7.78;7.07;;;;;;;16.91;100.00;102641.44;5200219;28;20049;-70
2022/08/09 05:59:56;;;;;;;9.68;6.75;;;;;;;16.93;100.00;102639.50;5203447;28;20484;-69
2022/08/09 06:02:27;;;;;;;8.50;7.28;;;;;;;16.98;100.00;102647.91;5201144;28;20070;-70
2022/08/09 06:04:59;;;;;;;10.25;7.22;;;;;;;17.05;100.00;102653.50;5200869;28;20034;-70
2022/08/09 06:07:30;;;;;;;12.00;7.68;;;;;;;17.11;100.00;102651.19;5203372;28;20021;-68
2022/08/09 06:10:02;;;;;;;9.70;7.32;;;;;;;17.20;100.00;102646.97;5204193;28;20113;-68
2022/08/09 06:12:33;;;;;;;8.73;7.78;;;;;;;17.29;100.00;102640.03;5200564;28;20029;-68
2022/08/09 06:15:05;;;;;;;9.35;7.10;;;;;;;17.38;100.00;102647.19;5201582;28;20172;-70
2022/08/09 06:17:36;;;;;;;9.68;7.72;;;;;;;17.44;100.00;102655.44;5197269;28;20026;-68
2022/08/09 06:20:08;;;;;;;9.77;7.25;;;;;;;17.58;100.00;102656.94;5202092;28;20048;-68
2022/08/09 06:22:39;;;;;;;10.80;7.22;;;;;;;17.59;100.00;102649.81;5202621;28;20034;-68
2022/08/09 06:25:10;;;;;;;8.25;7.05;;;;;;;17.70;100.00;102663.81;5203530;28;20026;-68
2022/08/09 06:27:42;;;;;;;10.15;7.45;;;;;;;17.85;100.00;102660.84;5202650;28;20030;-68
2022/08/09 06:30:13;;;;;;;12.77;8.13;;;;;;;17.97;100.00;102671.22;5201197;28;20028;-68
2022/08/09 06:32:45;;;;;;;9.50;7.32;;;;;;;18.03;100.00;102664.53;5201424;28;20091;-68
2022/08/09 06:35:16;;;;;;;9.60;7.95;;;;;;;18.18;100.00;102657.03;5203228;28;20030;-68
2022/08/09 06:37:47;;;;;;;9.82;7.35;;;;;;;18.28;100.00;102665.03;5196453;28;20039;-69
2022/08/09 06:40:19;;;;;;;10.13;7.90;;;;;;;18.43;100.00;102667.16;5203193;28;20061;-68
2022/08/09 06:42:50;;;;;;;10.77;7.63;;;;;;;18.46;100.00;102671.34;5201210;28;20026;-69
2022/08/09 06:45:22;;;;;;;8.32;7.05;;;;;;;18.66;100.00;102666.91;5202526;28;20144;-69
2022/08/09 06:47:53;;;;;;;9.82;7.65;;;;;;;18.74;100.00;102666.22;5198827;28;20477;-68
2022/08/09 06:50:25;;;;;;;8.77;7.70;;;;;;;18.83;100.00;102666.25;5204660;28;20155;-68
2022/08/09 06:52:56;;;;;;;8.80;7.90;;;;;;;19.07;100.00;102657.84;5202775;28;20062;-69
2022/08/09 06:55:30;;;;;;;10.13;8.05;;;;;;;19.08;100.00;102672.78;5198084;28;20050;-69
2022/08/09 06:58:02;;;;;;;12.35;8.20;;;;;;;19.14;100.00;102669.56;5204651;28;20133;-68
2022/08/09 07:00:34;;;;;;;8.25;7.45;;;;;;;19.44;100.00;102671.19;5206115;28;20152;-69
2022/08/09 07:03:05;;;;;;;10.32;7.82;;;;;;;19.50;100.00;102677.75;5202164;28;20026;-69
2022/08/09 07:05:37;;;;;;;10.07;7.45;;;;;;;19.57;100.00;102670.03;5209469;28;20060;-69
2022/08/09 07:08:08;;;;;;;10.57;7.55;;;;;;;19.61;100.00;102668.75;5201467;28;20054;-69
2022/08/09 07:10:39;;;;;;;9.05;7.10;;;;;;;19.85;100.00;102682.44;5203230;28;20037;-69
2022/08/09 07:13:11;;;;;;;9.63;7.10;;;;;;;19.98;100.00;102676.78;5205437;28;20026;-69
2022/08/09 07:15:43;;;;;;;14.70;7.97;;;;;;;20.09;100.00;102678.41;5202093;28;20142;-69
2022/08/09 07:18:14;;;;;;;8.57;7.53;;;;;;;20.18;100.00;102674.84;5202589;28;20404;-69
2022/08/09 07:20:45;;;;;;;9.23;7.63;;;;;;;20.32;100.00;102682.31;5204687;28;20038;-69
2022/08/09 07:23:17;;;;;;;10.00;7.65;;;;;;;20.35;100.00;102670.56;5201960;28;20412;-69
2022/08/09 07:25:48;;;;;;;8.03;7.20;;;;;;;20.56;100.00;102676.44;5206726;28;20034;-68
2022/08/09 07:28:20;;;;;;;11.43;6.93;;;;;;;20.70;100.00;102679.59;5202244;28;20149;-69
2022/08/09 07:30:52;;;;;;;9.57;7.10;;;;;;;20.94;100.00;102671.78;5205716;28;20032;-71
2022/08/09 07:33:25;;;;;;;9.50;7.35;;;;;;;20.90;100.00;102681.09;5195935;28;20026;-69
2022/08/09 07:35:56;;;;;;;8.18;7.20;;;;;;;21.02;100.00;102685.19;5205683;28;20397;-70
2022/08/09 07:38:27;;;;;;;8.40;7.17;;;;;;;21.17;100.00;102687.28;5208005;28;20229;-70
2022/08/09 07:40:59;;;;;;;9.03;7.67;;;;;;;21.22;100.00;102677.84;5206421;28;20021;-70
2022/08/09 07:43:30;;;;;;;8.67;6.73;;;;;;;21.34;100.00;102681.97;5205563;28;20112;-70
2022/08/09 07:46:01;;;;;;;7.27;6.50;;;;;;;21.43;100.00;102680.19;5203569;28;20038;-69
2022/08/09 07:48:33;;;;;;;9.30;6.90;;;;;;;21.72;100.00;102681.69;5206583;28;20040;-70
2022/08/09 07:51:05;;;;;;;10.03;6.87;;;;;;;21.75;100.00;102676.88;5188296;28;20053;-70
2022/08/09 07:53:38;;;;;;;9.00;6.90;;;;;;;21.80;98.98;102673.72;5197477;28;20105;-70
2022/08/09 07:56:09;;;;;;;9.10;6.68;;;;;;;21.89;95.99;102679.94;5200049;28;20483;-70
2022/08/09 07:58:40;;;;;;;8.27;6.30;;;;;;;22.16;95.63;102690.44;5203748;28;20026;-70
2022/08/09 08:01:12;;;;;;;10.67;6.77;;;;;;;22.14;93.81;102687.06;5206997;28;20033;-70
2022/08/09 08:03:44;;;;;;;8.07;6.60;;;;;;;22.15;95.16;102685.22;5208202;28;20032;-70
2022/08/09 08:06:15;;;;;;;8.87;7.30;;;;;;;22.43;95.26;102691.16;5205757;28;20030;-69
2022/08/09 08:08:46;;;;;;;14.27;6.97;;;;;;;22.36;92.59;102693.66;5208176;28;20041;-70
2022/08/09 08:11:18;;;;;;;8.57;6.47;;;;;;;22.46;91.65;102690.81;5204909;28;20066;-70
2022/08/09 08:13:49;;;;;;;7.00;6.20;;;;;;;22.72;88.96;102691.53;5205163;28;20061;-70
2022/08/09 08:16:20;;;;;;;8.70;6.17;;;;;;;23.02;89.05;102691.91;5207527;28;20036;-70
2022/08/09 08:18:51;;;;;;;7.30;6.40;;;;;;;22.93;85.24;102688.41;5203333;28;20493;-70
2022/08/09 08:21:24;;;;;;;7.90;6.17;;;;;;;23.09;86.35;102697.44;5202453;28;20486;-70
2022/08/09 08:23:55;;;;;;;7.55;6.13;;;;;;;23.23;84.33;102694.91;5206114;28;20035;-70
2022/08/09 08:26:26;;;;;;;8.77;5.97;;;;;;;23.23;82.19;102697.59;5199014;28;20064;-70
2022/08/09 08:28:58;;;;;;;8.93;5.33;;;;;;;23.35;81.38;102687.38;5203844;28;20553;-70
2022/08/09 08:31:29;;;;;;;9.50;6.03;;;;;;;23.41;80.52;102688.53;5201959;28;20107;-70
2022/08/09 08:34:00;;;;;;;8.30;6.10;;;;;;;23.35;77.38;102684.69;5203729;28;20033;-70
2022/08/09 08:36:32;;;;;;;7.40;5.20;;;;;;;23.63;77.89;102681.63;5201877;28;20030;-70
2022/08/09 08:39:04;;;;;;;7.70;5.18;;;;;;;23.88;75.96;102693.97;5203042;28;20026;-70
2022/08/09 08:41:37;;;;;;;8.50;5.03;;;;;;;23.91;74.97;102682.91;5200832;28;20053;-70
2022/08/09 08:44:09;;;;;;;7.20;5.53;;;;;;;23.96;75.64;102685.88;5205082;28;20037;-70
2022/08/09 08:46:41;;;;;;;7.80;4.80;;;;;;;24.22;74.77;102688.28;5201722;28;20030;-71
2022/08/09 08:49:13;;;;;;;6.30;4.00;;;;;;;24.15;67.21;102684.63;5205160;28;20523;-70
2022/08/09 08:51:44;;;;;;;8.15;4.45;;;;;;;24.31;69.67;102677.50;5204628;28;20065;-72
2022/08/09 08:54:16;;;;;;;7.43;4.57;;;;;;;24.49;66.27;102680.78;5205001;28;20110;-71
2022/08/09 08:56:48;;;;;;;5.83;3.60;;;;;;;24.56;63.90;102680.91;5201730;28;20099;-71
2022/08/09 08:59:20;;;;;;;7.35;4.10;;;;;;;24.48;65.28;102685.31;5204669;28;20030;-71
2022/08/09 09:01:52;;;;;;;6.50;3.70;;;;;;;24.61;65.89;102691.91;5200195;28;20029;-72
2022/08/09 09:04:28;;;;;;;4.78;3.38;;;;;;;24.71;65.27;102700.56;5201001;28;20017;-71
2022/08/09 09:07:05;;;;;;;5.78;3.88;;;;;;;24.75;67.38;102701.88;5200164;28;20030;-71
2022/08/09 09:09:39;;;;;;;5.45;3.85;;;;;;;24.78;64.55;102690.78;5188434;28;20057;-71
2022/08/09 09:12:11;;;;;;;7.22;3.70;;;;;;;25.04;66.39;102702.97;5206716;28;20034;-71
2022/08/09 09:14:45;;;;;;;10.07;3.67;;;;;;;24.99;63.10;102708.88;5201946;28;20523;-72
2022/08/09 09:17:16;;;;;;;6.72;3.67;;;;;;;25.04;62.34;102701.16;5201788;28;20394;-71
2022/08/09 09:19:48;;;;;;;5.40;2.93;;;;;;;25.20;60.88;102698.34;5203334;28;20102;-72
2022/08/09 09:22:21;;;;;;;5.27;2.93;;;;;;;25.36;61.00;102710.75;5202132;28;20037;-71
2022/08/09 09:24:53;;;;;;;5.70;2.80;;;;;;;25.31;59.28;102706.97;5195391;28;20691;-71
2022/08/09 09:27:26;;;;;;;5.65;2.17;;;;;;;25.36;56.22;102715.28;5195834;28;20060;-71
2022/08/09 09:30:08;;;;;;;4.82;2.00;;;;;;;25.70;56.88;102712.91;5205251;28;20483;-72
2022/08/09 09:32:40;;;;;;;7.07;2.35;;;;;;;25.59;55.68;102709.84;5204776;28;20477;-71
2022/08/09 09:35:11;;;;;;;5.20;2.17;;;;;;;25.60;54.22;102708.81;5205028;28;20030;-72
2022/08/09 09:37:44;;;;;;;4.63;2.10;;;;;;;25.69;53.82;102703.19;5203397;28;20083;-72
2022/08/09 09:40:16;;;;;;;5.95;2.05;;;;;;;25.93;55.35;102698.56;5207175;28;20030;-72
2022/08/09 09:42:56;;;;;;;5.83;2.17;;;;;;;26.11;54.46;102687.44;5203841;28;20026;-72
2022/08/09 09:45:27;;;;;;;3.78;1.83;;;;;;;25.89;50.97;102697.28;5202146;28;20040;-71
2022/08/09 09:48:02;;;;;;;4.63;1.77;;;;;;;26.05;52.12;102697.06;5204871;28;20428;-71
2022/08/09 09:50:42;;;;;;;4.30;1.77;;;;;;;26.18;51.70;102693.72;5204796;28;20121;-72
2022/08/09 09:53:19;;;;;;;3.13;1.30;;;;;;;26.20;49.74;102705.09;5206244;28;20040;-70
2022/08/09 09:55:53;;;;;;;3.28;1.38;;;;;;;26.34;50.98;102703.41;5203816;28;20090;-70
2022/08/09 09:58:41;;;;;;;4.70;1.80;;;;;;;26.41;53.10;102705.16;5205990;28;20037;-71
2022/08/09 10:01:20;;;;;;;4.00;1.55;;;;;;;26.60;49.80;102700.19;5205696;28;20037;-71
2022/08/09 10:03:54;;;;;;;2.75;1.27;;;;;;;26.49;49.19;102703.41;5201848;28;20033;-71
2022/08/09 10:06:38;;;;;;;7.40;1.25;;;;;;;26.73;48.40;102694.94;5204074;28;20030;-71
2022/08/09 10:09:11;;;;;;;4.25;1.30;;;;;;;26.86;47.70;102708.53;5206646;28;20022;-70
2022/08/09 10:11:43;;;;;;;3.35;1.20;;;;;;;26.73;46.22;102700.31;5206445;28;20025;-71
2022/08/09 10:14:21;;;;;;;2.67;1.27;;;;;;;26.87;46.46;102707.50;5203429;28;20046;-71
2022/08/09 10:16:53;;;;;;;3.20;1.13;;;;;;;26.84;45.39;102691.72;5208390;28;20468;-71
2022/08/09 10:19:35;;;;;;;3.07;0.90;;;;;;;27.11;45.26;102705.44;5198002;28;20037;-71
2022/08/09 10:22:06;;;;;;;4.35;1.23;;;;;;;26.99;43.76;102701.59;5201323;28;20034;-70
2022/08/09 10:24:39;;;;;;;5.53;1.10;;;;;;;27.00;44.54;102701.38;5201909;28;20022;-70
2022/08/09 10:27:10;;;;;;;3.92;1.40;;;;;;;27.08;44.75;102692.34;5204836;28;20030;-72
2022/08/09 10:29:42;;;;;;;3.20;1.10;;;;;;;27.16;43.12;102697.59;5204278;28;20041;-70
2022/08/09 10:32:13;;;;;;;2.73;1.10;;;;;;;27.27;44.73;102690.84;5204547;28;20029;-70
2022/08/09 10:34:45;;;;;;;1.60;0.85;;;;;;;27.38;43.99;102687.63;5204268;28;20026;-70
2022/08/09 10:37:17;;;;;;;3.58;0.80;;;;;;;27.49;42.38;102683.53;5204839;28;20022;-70
2022/08/09 10:39:50;;;;;;;2.85;0.70;;;;;;;27.45;40.94;102687.66;5209965;28;20030;-70
2022/08/09 10:42:21;;;;;;;2.60;1.05;;;;;;;27.60;40.98;102683.81;5200718;28;20033;-71
2022/08/09 10:45:02;;;;;;;2.10;0.83;;;;;;;27.63;40.22;102682.59;5201832;28;20034;-70
2022/08/09 10:47:56;;;;;;;3.67;0.93;;;;;;;27.82;40.23;102681.88;5219908;28;20176;-71
2022/08/09 10:53:31;;;;;;;2.65;1.00;;;;;;;27.67;41.95;102672.25;5205663;28;20722;-71
2022/08/09 10:56:22;;;;;;;2.17;0.90;;;;;;;27.89;40.31;102669.28;5205543;28;20022;-70
2022/08/09 10:58:56;;;;;;;2.70;0.70;;;;;;;27.74;39.09;102668.59;5203255;28;20408;-70
2022/08/09 11:01:31;;;;;;;3.50;0.73;;;;;;;27.93;38.15;102672.41;5204838;28;20021;-72
2022/08/09 11:04:12;;;;;;;2.83;0.80;;;;;;;28.03;38.34;102672.84;5204949;28;20026;-71
2022/08/09 11:06:44;;;;;;;2.10;0.80;;;;;;;27.89;38.49;102671.16;5200580;28;20648;-71
2022/08/09 11:09:18;;;;;;;1.75;0.70;;;;;;;28.14;39.11;102666.03;5206328;28;20033;-70
2022/08/09 11:11:59;;;;;;;4.15;0.90;;;;;;;28.19;38.18;102663.56;5205966;28;20430;-71
2022/08/09 11:14:36;;;;;;;2.85;0.63;;;;;;;28.11;37.13;102669.16;5205523;28;20088;-71
2022/08/09 11:17:14;;;;;;;4.18;1.13;;;;;;;28.11;37.80;102667.28;5195260;28;20453;-71
2022/08/09 11:19:52;;;;;;;2.13;0.65;;;;;;;28.18;37.97;102679.94;5198101;28;20084;-71
2022/08/09 11:22:43;;;;;;;1.50;0.60;;;;;;;28.44;38.66;102671.94;5196947;28;20209;-71
2022/08/09 11:25:22;;;;;;;3.78;0.90;;;;;;;28.18;36.57;102675.38;5204598;28;20042;-71
2022/08/09 11:27:56;;;;;;;2.83;0.60;;;;;;;28.29;37.47;102669.38;5202589;28;20041;-72
2022/08/09 11:30:28;;;;;;;3.35;0.88;;;;;;;28.31;37.31;102670.03;5202067;28;20477;-71
2022/08/09 11:33:04;;;;;;;2.38;0.80;;;;;;;28.38;37.89;102666.56;5198778;28;20113;-71
2022/08/09 11:35:43;;;;;;;4.30;0.90;;;;;;;28.42;36.24;102671.34;5202809;28;20102;-70
2022/08/09 11:38:32;;;;;;;3.75;0.80;;;;;;;28.69;35.68;102647.09;5195727;28;20121;-70
2022/08/09 11:41:10;;;;;;;2.15;0.80;;;;;;;28.74;35.88;102653.50;5200017;28;20203;-71
2022/08/09 11:43:48;;;;;;;1.67;0.73;;;;;;;28.92;36.01;102643.97;5202753;28;20032;-71
2022/08/09 11:46:20;;;;;;;2.70;0.93;;;;;;;28.98;36.09;102643.13;5200587;28;20061;-70
2022/08/09 11:48:54;;;;;;;3.65;0.90;;;;;;;28.89;36.54;102642.50;5203767;28;20029;-71
2022/08/09 11:51:29;;;;;;;2.80;0.90;;;;;;;28.86;35.44;102638.34;5196846;28;20784;-72